createdAt,value
2023-05-21T00:01:53.970Z,14.20
2023-05-21T00:04:21.956Z,15.00
2023-05-21T00:06:51.669Z,14.90
2023-05-21T00:09:19.627Z,14.80
2023-05-21T00:11:47.571Z,14.73
2023-05-21T00:14:15.498Z,14.10
2023-05-21T00:16:47.100Z,14.50
2023-05-21T00:19:16.188Z,14.20
2023-05-21T00:21:46.029Z,16.13
2023-05-21T00:24:14.300Z,16.00
2023-05-21T00:26:42.349Z,15.97
2023-05-21T00:29:10.474Z,14.73
2023-05-21T00:31:38.487Z,15.13
2023-05-21T00:34:11.122Z,15.40
2023-05-21T00:36:40.500Z,15.07
2023-05-21T00:39:08.978Z,15.70
2023-05-21T00:41:38.398Z,15.40
2023-05-21T00:44:07.056Z,14.23
2023-05-21T00:46:36.715Z,13.77
2023-05-21T00:49:10.458Z,14.33
2023-05-21T00:51:40.277Z,14.07
2023-05-21T00:54:10.293Z,14.73
2023-05-21T00:56:38.670Z,13.43
2023-05-21T00:59:06.750Z,13.53
2023-05-21T01:01:37.002Z,14.37
2023-05-21T01:04:06.248Z,14.07
2023-05-21T01:06:35.604Z,14.20
2023-05-21T01:09:06.486Z,14.10
2023-05-21T01:11:40.306Z,14.40
2023-05-21T01:14:10.192Z,15.33
2023-05-21T01:16:39.403Z,14.83
2023-05-21T01:19:10.301Z,15.30
2023-05-21T01:21:42.573Z,14.63
2023-05-21T01:24:12.027Z,14.83
2023-05-21T01:26:42.810Z,14.57
2023-05-21T01:29:13.357Z,13.93
2023-05-21T01:31:55.518Z,14.20
2023-05-21T01:34:28.730Z,15.07
2023-05-21T01:37:02.327Z,14.70
2023-05-21T01:39:38.597Z,14.23
2023-05-21T01:42:11.674Z,13.97
2023-05-21T01:44:41.298Z,14.33
2023-05-21T01:47:11.232Z,14.27
2023-05-21T01:49:39.565Z,15.20
2023-05-21T01:52:08.222Z,13.03
2023-05-21T01:54:37.906Z,14.17
2023-05-21T01:57:07.005Z,13.40
2023-05-21T01:59:35.468Z,13.20
2023-05-21T02:02:03.653Z,13.10
2023-05-21T02:04:31.810Z,12.90
2023-05-21T02:06:59.834Z,12.90
2023-05-21T02:09:27.765Z,12.97
2023-05-21T02:11:57.258Z,12.47
2023-05-21T02:14:25.560Z,13.13
2023-05-21T02:16:53.660Z,12.87
2023-05-21T02:19:21.771Z,12.40
2023-05-21T02:21:49.808Z,12.97
2023-05-21T02:24:17.957Z,12.77
2023-05-21T02:26:47.253Z,13.13
2023-05-21T02:29:16.566Z,13.37
2023-05-21T02:31:44.549Z,12.73
2023-05-21T02:34:12.718Z,13.33
2023-05-21T02:36:41.739Z,11.73
2023-05-21T02:39:09.707Z,12.17
2023-05-21T02:41:38.251Z,12.20
2023-05-21T02:44:06.429Z,12.73
2023-05-21T02:46:35.836Z,12.20
2023-05-21T02:49:04.140Z,12.53
2023-05-21T02:51:32.137Z,13.37
2023-05-21T02:54:00.121Z,12.50
2023-05-21T02:56:28.167Z,12.70
2023-05-21T02:58:56.171Z,12.13
2023-05-21T03:01:24.226Z,12.00
2023-05-21T03:03:53.574Z,12.93
2023-05-21T03:06:22.596Z,13.50
2023-05-21T03:08:50.599Z,12.90
2023-05-21T03:11:21.112Z,12.10
2023-05-21T03:13:49.201Z,12.53
2023-05-21T03:16:17.704Z,12.87
2023-05-21T03:18:46.156Z,12.67
2023-05-21T03:21:15.830Z,12.13
2023-05-21T03:23:43.810Z,13.63
2023-05-21T03:26:11.833Z,12.80
2023-05-21T03:28:39.767Z,11.93
2023-05-21T03:31:07.705Z,12.07
2023-05-21T03:33:36.162Z,12.27
2023-05-21T03:36:04.260Z,12.50
2023-05-21T03:38:35.368Z,13.03
2023-05-21T03:41:04.537Z,12.60
2023-05-21T03:43:32.571Z,12.20
2023-05-21T03:46:00.775Z,12.70
2023-05-21T03:48:28.939Z,12.30
2023-05-21T03:50:57.501Z,12.17
2023-05-21T03:53:25.846Z,13.13
2023-05-21T03:55:56.114Z,12.67
2023-05-21T03:58:24.378Z,12.90
2023-05-21T04:00:52.386Z,12.53
2023-05-21T04:03:20.555Z,13.03
2023-05-21T04:05:49.491Z,13.30
2023-05-21T04:08:17.532Z,12.73
2023-05-21T04:10:47.935Z,13.00
2023-05-21T04:13:17.452Z,12.50
2023-05-21T04:15:46.901Z,12.53
2023-05-21T04:18:16.423Z,12.53
2023-05-21T04:20:44.560Z,12.40
2023-05-21T04:23:12.556Z,13.03
2023-05-21T04:25:40.605Z,12.37
2023-05-21T04:28:08.625Z,13.03
2023-05-21T04:30:38.060Z,12.57
2023-05-21T04:33:06.697Z,12.80
2023-05-21T04:35:35.632Z,13.40
2023-05-21T04:38:05.729Z,12.70
2023-05-21T04:40:34.081Z,13.67
2023-05-21T04:43:04.864Z,13.50
2023-05-21T04:45:32.830Z,14.17
2023-05-21T04:48:03.053Z,13.27
2023-05-21T04:50:31.795Z,12.13
2023-05-21T04:53:00.034Z,12.43
2023-05-21T04:55:29.042Z,13.17
2023-05-21T04:57:57.468Z,12.57
2023-05-21T05:00:26.238Z,12.67
2023-05-21T05:02:54.309Z,12.60
2023-05-21T05:05:23.879Z,12.40
2023-05-21T05:07:51.931Z,12.60
2023-05-21T05:10:19.924Z,13.30
2023-05-21T05:12:47.893Z,11.77
2023-05-21T05:15:16.086Z,12.70
2023-05-21T05:17:44.180Z,11.80
2023-05-21T05:20:12.974Z,11.33
2023-05-21T05:22:42.373Z,10.43
2023-05-21T05:25:10.756Z,10.47
2023-05-21T05:27:38.820Z,10.10
2023-05-21T05:30:08.159Z,11.20
2023-05-21T05:32:36.684Z,11.20
2023-05-21T05:35:05.336Z,11.33
2023-05-21T05:37:34.160Z,11.37
2023-05-21T05:40:04.418Z,11.50
2023-05-21T05:42:32.472Z,11.17
2023-05-21T05:45:00.579Z,11.07
2023-05-21T05:47:28.616Z,11.03
2023-05-21T05:49:56.601Z,11.27
2023-05-21T05:52:24.519Z,10.30
2023-05-21T05:54:52.443Z,10.30
2023-05-21T05:57:22.256Z,10.10
2023-05-21T05:59:50.232Z,10.43
2023-05-21T06:02:18.288Z,9.55
2023-05-21T06:04:46.415Z,9.38
2023-05-21T06:07:14.561Z,10.73
2023-05-21T06:09:42.573Z,10.05
2023-05-21T06:12:14.739Z,10.43
2023-05-21T06:14:49.142Z,10.57
2023-05-21T06:17:17.095Z,9.52
2023-05-21T06:19:46.144Z,9.93
2023-05-21T06:22:14.221Z,8.23
2023-05-21T06:24:42.281Z,8.57
2023-05-21T06:27:10.359Z,8.73
2023-05-21T06:29:38.505Z,7.97
2023-05-21T06:32:09.263Z,8.63
2023-05-21T06:34:37.773Z,7.57
2023-05-21T06:37:06.434Z,7.63
2023-05-21T06:39:34.624Z,6.47
2023-05-21T06:42:02.794Z,6.95
2023-05-21T06:44:30.875Z,7.20
2023-05-21T06:46:59.037Z,6.90
2023-05-21T06:49:28.370Z,6.15
2023-05-21T06:51:56.321Z,6.18
2023-05-21T06:54:26.685Z,7.15
2023-05-21T06:56:55.062Z,6.60
2023-05-21T06:59:23.093Z,6.85
2023-05-21T07:01:53.374Z,6.90
2023-05-21T07:04:22.172Z,6.78
2023-05-21T07:06:54.602Z,6.90
2023-05-21T07:09:22.613Z,6.72
2023-05-21T07:11:53.072Z,7.45
2023-05-21T07:14:21.267Z,7.15
2023-05-21T07:16:49.322Z,7.10
2023-05-21T07:19:17.617Z,7.30
2023-05-21T07:21:45.786Z,7.25
2023-05-21T07:24:15.210Z,6.85
2023-05-21T07:26:43.695Z,10.90
2023-05-21T07:29:11.652Z,7.03
2023-05-21T07:31:39.838Z,7.57
2023-05-21T07:34:08.490Z,6.53
2023-05-21T07:36:37.156Z,6.85
2023-05-21T07:39:05.321Z,7.32
2023-05-21T07:41:34.630Z,6.82
2023-05-21T07:44:02.811Z,6.63
2023-05-21T07:46:30.932Z,6.80
2023-05-21T07:48:58.948Z,6.68
2023-05-21T07:51:27.542Z,6.05
2023-05-21T07:53:56.513Z,5.65
2023-05-21T07:56:24.738Z,5.00
2023-05-21T07:58:54.132Z,5.10
2023-05-21T08:01:22.354Z,5.13
2023-05-21T08:03:50.525Z,5.15
2023-05-21T08:06:18.723Z,5.20
2023-05-21T08:08:47.012Z,5.18
2023-05-21T08:11:15.023Z,4.97
2023-05-21T08:13:42.964Z,5.40
2023-05-21T08:16:12.470Z,4.93
2023-05-21T08:18:41.349Z,5.28
2023-05-21T08:21:09.551Z,5.03
2023-05-21T08:23:37.528Z,4.70
2023-05-21T08:26:07.068Z,4.90
2023-05-21T08:28:35.708Z,4.68
2023-05-21T08:31:03.726Z,5.25
2023-05-21T08:33:33.109Z,4.65
2023-05-21T08:36:01.432Z,4.70
2023-05-21T08:38:30.392Z,4.65
2023-05-21T08:40:59.769Z,4.65
2023-05-21T08:43:29.438Z,5.22
2023-05-21T08:46:01.718Z,4.93
2023-05-21T08:48:31.865Z,5.20
2023-05-21T08:51:01.682Z,5.22
2023-05-21T08:53:30.042Z,4.40
2023-05-21T08:55:58.370Z,4.93
2023-05-21T08:58:26.415Z,4.63
2023-05-21T09:00:56.311Z,4.72
2023-05-21T09:03:25.515Z,4.88
2023-05-21T09:05:55.196Z,5.18
2023-05-21T09:08:31.150Z,4.60
2023-05-21T09:10:59.096Z,5.07
2023-05-21T09:13:30.328Z,5.10
2023-05-21T09:15:58.402Z,4.72
2023-05-21T09:18:27.671Z,5.03
2023-05-21T09:20:56.910Z,4.78
2023-05-21T09:23:29.845Z,4.78
2023-05-21T09:25:58.514Z,5.57
2023-05-21T09:28:26.812Z,4.60
2023-05-21T09:30:54.825Z,5.20
2023-05-21T09:33:26.987Z,4.35
2023-05-21T09:35:55.544Z,4.72
2023-05-21T09:38:24.316Z,4.80
2023-05-21T09:40:56.395Z,4.82
2023-05-21T09:43:24.696Z,5.05
2023-05-21T09:45:53.728Z,4.47
2023-05-21T09:48:34.776Z,4.20
2023-05-21T09:51:14.318Z,4.15
2023-05-21T09:53:49.657Z,4.40
2023-05-21T09:56:22.448Z,4.50
2023-05-21T09:58:52.521Z,5.13
2023-05-21T10:01:21.389Z,4.30
2023-05-21T10:03:55.628Z,4.50
2023-05-21T10:06:26.476Z,4.60
2023-05-21T10:08:57.583Z,4.65
2023-05-21T10:11:29.639Z,4.50
2023-05-21T10:14:03.263Z,4.45
2023-05-21T10:16:34.446Z,4.68
2023-05-21T10:19:02.778Z,4.55
2023-05-21T10:21:31.938Z,4.60
2023-05-21T10:24:01.556Z,4.70
2023-05-21T10:26:31.720Z,4.65
2023-05-21T10:29:01.000Z,4.75
2023-05-21T10:31:29.693Z,4.50
2023-05-21T10:33:57.921Z,4.55
2023-05-21T10:36:26.134Z,4.90
2023-05-21T10:38:55.345Z,4.60
2023-05-21T10:41:24.808Z,4.90
2023-05-21T10:44:03.916Z,4.70
2023-05-21T10:47:00.629Z,4.75
2023-05-21T10:49:45.811Z,5.05
2023-05-21T10:52:26.226Z,4.38
2023-05-21T10:55:24.607Z,5.45
2023-05-21T10:58:12.136Z,4.60
2023-05-21T11:00:43.712Z,4.65
2023-05-21T11:03:14.241Z,4.95
2023-05-21T11:05:43.354Z,5.15
2023-05-21T11:08:23.821Z,4.45
2023-05-21T11:10:58.063Z,4.43
2023-05-21T11:13:27.213Z,5.20
2023-05-21T11:16:15.906Z,5.03
2023-05-21T11:19:02.486Z,5.07
2023-05-21T11:21:32.342Z,4.90
2023-05-21T11:24:06.549Z,5.00
2023-05-21T11:27:04.885Z,5.00
2023-05-21T11:29:48.475Z,4.80
2023-05-21T11:32:20.781Z,5.10
2023-05-21T11:34:49.768Z,4.70
2023-05-21T11:37:27.697Z,4.85
2023-05-21T11:39:56.665Z,4.65
2023-05-21T11:42:32.524Z,5.30
2023-05-21T11:45:02.176Z,4.82
2023-05-21T11:47:33.325Z,4.50
2023-05-21T11:50:02.659Z,4.53
2023-05-21T11:52:31.834Z,5.10
2023-05-21T11:55:00.072Z,5.63
2023-05-21T11:57:31.352Z,5.10
2023-05-21T12:00:01.459Z,5.10
2023-05-21T12:02:34.469Z,5.30
2023-05-21T12:05:02.595Z,5.20
2023-05-21T12:07:31.285Z,5.20
2023-05-21T12:09:59.831Z,5.13
2023-05-21T12:12:38.572Z,5.10
2023-05-21T12:15:12.663Z,6.15
2023-05-21T12:17:42.454Z,5.32
2023-05-21T12:20:16.703Z,5.80
2023-05-21T12:22:45.947Z,5.50
2023-05-21T12:25:14.298Z,5.95
2023-05-21T12:27:45.189Z,5.25
2023-05-21T12:30:13.671Z,5.32
2023-05-21T12:32:45.312Z,4.85
2023-05-21T12:35:24.290Z,5.03
2023-05-21T12:37:53.260Z,4.97
2023-05-21T12:40:22.430Z,5.18
2023-05-21T12:42:51.866Z,4.65
2023-05-21T12:45:22.818Z,5.68
2023-05-21T12:47:56.588Z,5.32
2023-05-21T12:50:24.898Z,6.15
2023-05-21T12:52:56.388Z,6.57
2023-05-21T12:55:26.347Z,7.40
2023-05-21T12:58:03.928Z,5.75
2023-05-21T13:00:33.479Z,5.88
2023-05-21T13:03:04.814Z,6.30
2023-05-21T13:05:32.998Z,5.72
2023-05-21T13:08:00.990Z,5.25
2023-05-21T13:10:29.036Z,5.40
2023-05-21T13:12:57.077Z,5.55
2023-05-21T13:15:25.123Z,5.53
2023-05-21T13:17:55.094Z,5.47
2023-05-21T13:20:27.806Z,5.70
2023-05-21T13:22:56.279Z,6.45
2023-05-21T13:25:29.058Z,8.20
2023-05-21T13:27:58.219Z,8.35
2023-05-21T13:30:26.943Z,6.47
2023-05-21T13:32:55.316Z,7.40
2023-05-21T13:35:23.318Z,8.88
2023-05-21T13:37:52.841Z,7.15
2023-05-21T13:40:21.752Z,6.05
2023-05-21T13:42:51.177Z,5.88
2023-05-21T13:45:28.973Z,5.53
2023-05-21T13:47:57.395Z,5.70
2023-05-21T13:50:26.396Z,5.22
2023-05-21T13:52:55.984Z,5.57
2023-05-21T13:55:24.153Z,5.93
2023-05-21T13:57:52.247Z,12.73
2023-05-21T14:00:20.375Z,5.72
2023-05-21T14:02:48.581Z,6.22
2023-05-21T14:05:16.700Z,5.97
2023-05-21T14:07:45.499Z,5.28
2023-05-21T14:10:15.072Z,6.63
2023-05-21T14:12:43.159Z,7.00
2023-05-21T14:15:12.019Z,7.20
2023-05-21T14:17:40.715Z,7.47
2023-05-21T14:20:10.383Z,7.35
2023-05-21T14:22:39.524Z,6.97
2023-05-21T14:25:08.255Z,6.38
2023-05-21T14:27:38.997Z,6.68
2023-05-21T14:30:08.174Z,7.63
2023-05-21T14:32:37.092Z,8.90
2023-05-21T14:35:06.353Z,8.00
2023-05-21T14:37:34.295Z,7.18
2023-05-21T14:40:02.518Z,7.65
2023-05-21T14:42:30.840Z,7.63
2023-05-21T14:45:16.993Z,7.90
2023-05-21T14:47:47.781Z,8.10
2023-05-21T14:50:17.493Z,8.13
2023-05-21T14:52:45.606Z,9.48
2023-05-21T14:55:13.985Z,11.15
2023-05-21T14:57:41.972Z,8.95
2023-05-21T15:00:13.404Z,8.75
2023-05-21T15:02:41.661Z,9.55
2023-05-21T15:05:10.016Z,7.90
2023-05-21T15:07:38.146Z,7.57
2023-05-21T15:10:07.051Z,8.27
2023-05-21T15:12:35.028Z,7.95
2023-05-21T15:15:03.140Z,6.45
2023-05-21T15:17:33.456Z,5.70
2023-05-21T15:20:04.415Z,5.47
2023-05-21T15:22:32.581Z,5.70
2023-05-21T15:25:01.112Z,6.25
2023-05-21T15:27:29.283Z,6.05
2023-05-21T15:29:57.423Z,5.60
2023-05-21T15:32:25.953Z,5.57
2023-05-21T15:34:56.042Z,6.07
2023-05-21T15:37:24.152Z,6.10
2023-05-21T15:39:53.439Z,5.43
2023-05-21T15:42:21.541Z,6.85
2023-05-21T15:44:49.859Z,6.63
2023-05-21T15:47:17.884Z,5.30
2023-05-21T15:49:46.091Z,5.47
2023-05-21T15:52:15.518Z,5.93
2023-05-21T15:54:43.492Z,5.40
2023-05-21T15:57:11.623Z,5.82
2023-05-21T15:59:40.052Z,5.05
2023-05-21T16:02:08.901Z,5.25
2023-05-21T16:04:37.851Z,5.65
2023-05-21T16:07:06.390Z,5.00
2023-05-21T16:09:37.709Z,4.93
2023-05-21T16:12:07.598Z,4.95
2023-05-21T16:14:35.752Z,4.60
2023-05-21T16:17:03.953Z,5.13
2023-05-21T16:19:32.599Z,5.05
2023-05-21T16:22:02.154Z,5.73
2023-05-21T16:24:30.390Z,5.50
2023-05-21T16:26:59.782Z,5.53
2023-05-21T16:29:27.841Z,5.68
2023-05-21T16:31:55.938Z,5.20
2023-05-21T16:34:24.599Z,5.23
2023-05-21T16:36:52.933Z,4.87
2023-05-21T16:39:21.071Z,5.00
2023-05-21T16:41:49.242Z,6.03
2023-05-21T16:44:20.349Z,5.70
2023-05-21T16:46:48.328Z,5.63
2023-05-21T16:49:16.425Z,5.73
2023-05-21T16:51:44.561Z,5.50
2023-05-21T16:54:12.639Z,5.30
2023-05-21T16:56:40.695Z,5.10
2023-05-21T16:59:08.743Z,5.50
2023-05-21T17:01:38.213Z,4.83
2023-05-21T17:04:06.725Z,4.90
2023-05-21T17:06:34.950Z,5.27
2023-05-21T17:09:03.671Z,5.30
2023-05-21T17:11:32.013Z,5.70
2023-05-21T17:14:00.094Z,5.50
2023-05-21T17:16:28.157Z,5.20
2023-05-21T17:18:57.750Z,5.40
2023-05-21T17:21:26.755Z,5.60
2023-05-21T17:23:54.827Z,5.27
2023-05-21T17:26:23.219Z,5.50
2023-05-21T17:28:51.375Z,5.33
2023-05-21T17:31:19.510Z,5.30
2023-05-21T17:33:48.019Z,5.63
2023-05-21T17:36:17.585Z,5.80
2023-05-21T17:38:45.611Z,5.83
2023-05-21T17:41:14.954Z,5.00
2023-05-21T17:43:43.559Z,5.20
2023-05-21T17:46:11.620Z,5.87
2023-05-21T17:48:39.838Z,5.40
2023-05-21T17:51:07.787Z,4.90
2023-05-21T17:53:37.365Z,5.90
2023-05-21T17:56:05.840Z,5.27
2023-05-21T17:58:33.910Z,4.90
2023-05-21T18:01:02.837Z,5.57
2023-05-21T18:03:31.241Z,5.87
2023-05-21T18:05:59.161Z,5.60
2023-05-21T18:08:27.096Z,6.37
2023-05-21T18:10:57.104Z,6.47
2023-05-21T18:13:25.189Z,18.53
2023-05-21T18:15:53.332Z,9.17
2023-05-21T18:18:21.724Z,8.90
2023-05-21T18:20:50.260Z,8.87
2023-05-21T18:24:01.640Z,9.57
2023-05-21T18:26:31.469Z,9.40
2023-05-21T18:29:02.671Z,9.10
2023-05-21T18:31:30.724Z,9.17
2023-05-21T18:33:59.507Z,9.10
2023-05-21T18:36:30.433Z,10.60
2023-05-21T18:38:58.536Z,10.90
2023-05-21T18:41:26.878Z,9.93
2023-05-21T18:43:56.398Z,10.50
2023-05-21T18:46:24.546Z,9.70
2023-05-21T18:48:52.634Z,8.20
2023-05-21T18:51:20.868Z,7.00
2023-05-21T18:53:49.129Z,6.17
2023-05-21T18:56:17.159Z,6.73
2023-05-21T18:58:45.175Z,7.73
2023-05-21T19:01:14.739Z,7.80
2023-05-21T19:03:42.820Z,8.43
2023-05-21T19:06:11.941Z,9.03
2023-05-21T19:08:41.384Z,8.63
2023-05-21T19:11:09.626Z,7.90
2023-05-21T19:13:37.796Z,7.90
2023-05-21T19:16:10.954Z,7.40
2023-05-21T19:18:43.330Z,7.10
2023-05-21T19:21:11.816Z,7.10
2023-05-21T19:23:51.996Z,7.13
2023-05-21T19:26:21.564Z,6.90
2023-05-21T19:28:53.645Z,7.40
2023-05-21T19:31:24.773Z,7.23
2023-05-21T19:33:54.810Z,7.80
2023-05-21T19:36:23.043Z,6.57
2023-05-21T19:38:52.074Z,7.10
2023-05-21T19:41:22.695Z,7.17
2023-05-21T19:43:53.144Z,9.07
2023-05-21T19:46:23.899Z,8.07
2023-05-21T19:48:53.511Z,7.60
2023-05-21T19:51:21.563Z,7.87
2023-05-21T19:53:49.614Z,8.10
2023-05-21T19:56:20.048Z,8.67
2023-05-21T19:58:48.174Z,11.33
2023-05-21T20:01:17.462Z,9.73
2023-05-21T20:03:46.264Z,8.97
2023-05-21T20:06:19.174Z,9.63
2023-05-21T20:08:48.088Z,10.60
2023-05-21T20:11:16.708Z,9.70
2023-05-21T20:13:50.184Z,9.33
2023-05-21T20:16:19.031Z,8.77
2023-05-21T20:18:50.037Z,9.23
2023-05-21T20:21:21.567Z,9.97
2023-05-21T20:23:50.051Z,9.90
2023-05-21T20:26:19.877Z,11.07
2023-05-21T20:28:48.012Z,10.67
2023-05-21T20:31:19.105Z,10.17
2023-05-21T20:33:50.697Z,10.20
2023-05-21T20:36:22.100Z,11.40
2023-05-21T20:38:52.406Z,11.03
2023-05-21T20:41:20.713Z,11.00
2023-05-21T20:43:49.112Z,11.63
2023-05-21T20:46:18.641Z,12.73
2023-05-21T20:48:47.439Z,13.10
2023-05-21T20:51:15.711Z,12.50
2023-05-21T20:53:47.749Z,11.80
2023-05-21T20:56:26.731Z,11.40
2023-05-21T20:59:01.963Z,11.80
2023-05-21T21:01:31.363Z,11.90
2023-05-21T21:03:59.479Z,12.03
2023-05-21T21:06:30.267Z,11.27
2023-05-21T21:09:00.490Z,11.47
2023-05-21T21:11:28.696Z,11.60
2023-05-21T21:13:56.914Z,11.10
2023-05-21T21:16:25.687Z,11.20
2023-05-21T21:18:55.824Z,7.73
2023-05-21T21:21:24.051Z,10.33
2023-05-21T21:23:52.116Z,8.53
2023-05-21T21:26:22.043Z,8.63
2023-05-21T21:28:50.305Z,8.53
2023-05-21T21:31:19.846Z,8.77
2023-05-21T21:33:48.414Z,8.57
2023-05-21T21:36:16.405Z,8.67
2023-05-21T21:38:44.419Z,7.77
2023-05-21T21:41:13.260Z,7.27
2023-05-21T21:43:42.576Z,7.43
2023-05-21T21:46:10.612Z,8.07
2023-05-21T21:48:39.105Z,8.43
2023-05-21T21:51:08.220Z,7.77
2023-05-21T21:53:36.242Z,7.80
2023-05-21T21:56:04.226Z,7.23
2023-05-21T21:58:32.412Z,7.53
2023-05-21T22:01:01.831Z,6.60
2023-05-21T22:03:33.065Z,7.63
2023-05-21T22:06:01.043Z,7.07
2023-05-21T22:08:29.102Z,6.90
2023-05-21T22:10:57.021Z,6.97
2023-05-21T22:13:26.979Z,6.70
2023-05-21T22:15:57.473Z,6.60
2023-05-21T22:18:39.570Z,6.37
2023-05-21T22:21:09.735Z,6.03
2023-05-21T22:23:38.497Z,6.13
2023-05-21T22:26:06.733Z,7.00
2023-05-21T22:28:34.914Z,7.07
2023-05-21T22:31:03.121Z,6.87
2023-05-21T22:33:33.004Z,6.73
2023-05-21T22:36:01.092Z,7.27
2023-05-21T22:38:29.107Z,7.23
2023-05-21T22:40:57.293Z,8.63
2023-05-21T22:43:26.277Z,7.23
2023-05-21T22:45:54.367Z,6.93
2023-05-21T22:48:23.070Z,7.60
2023-05-21T22:50:53.489Z,7.60
2023-05-21T22:53:21.788Z,7.20
2023-05-21T22:55:50.099Z,7.37
2023-05-21T22:58:18.579Z,7.03
2023-05-21T23:00:48.092Z,7.33
2023-05-21T23:03:16.460Z,7.43
2023-05-21T23:05:45.280Z,7.63
2023-05-21T23:08:15.272Z,7.27
2023-05-21T23:10:43.452Z,7.57
2023-05-21T23:13:12.919Z,8.10
2023-05-21T23:15:43.848Z,7.97
2023-05-21T23:18:12.606Z,8.00
2023-05-21T23:20:41.944Z,8.30
2023-05-21T23:23:10.672Z,7.80
2023-05-21T23:25:40.034Z,6.97
2023-05-21T23:28:08.011Z,7.73
2023-05-21T23:30:36.128Z,7.77
2023-05-21T23:33:04.814Z,8.30
2023-05-21T23:35:32.865Z,7.80
2023-05-21T23:38:00.796Z,8.07
2023-05-21T23:40:28.897Z,8.47
2023-05-21T23:42:58.414Z,8.03
2023-05-21T23:45:26.437Z,8.27
2023-05-21T23:47:54.517Z,7.90
2023-05-21T23:50:22.604Z,7.87
2023-05-21T23:52:50.553Z,7.77
2023-05-21T23:55:18.772Z,7.30
2023-05-21T23:57:46.763Z,7.27
